createdAt,value
2022-08-26T00:01:57.048Z,3.38
2022-08-26T00:04:26.197Z,3.28
2022-08-26T00:06:57.198Z,3.25
2022-08-26T00:09:25.956Z,3.55
2022-08-26T00:11:54.318Z,3.25
2022-08-26T00:14:26.026Z,3.95
2022-08-26T00:16:59.942Z,3.10
2022-08-26T00:19:27.345Z,3.60
2022-08-26T00:21:54.908Z,3.40
2022-08-26T00:24:26.882Z,3.63
2022-08-26T00:26:54.185Z,3.10
2022-08-26T00:29:21.818Z,3.42
2022-08-26T00:31:50.262Z,3.72
2022-08-26T00:34:19.441Z,2.75
2022-08-26T00:36:47.858Z,3.38
2022-08-26T00:39:19.985Z,3.30
2022-08-26T00:41:47.668Z,3.90
2022-08-26T00:44:14.668Z,3.70
2022-08-26T00:46:48.536Z,3.60
2022-08-26T00:49:34.474Z,3.20
2022-08-26T00:52:07.053Z,3.65
2022-08-26T00:54:46.789Z,3.50
2022-08-26T00:57:18.738Z,3.33
2022-08-26T00:59:55.028Z,3.05
2022-08-26T01:02:23.023Z,3.42
2022-08-26T01:05:03.384Z,3.83
2022-08-26T01:07:34.846Z,3.30
2022-08-26T01:10:10.375Z,2.92
2022-08-26T01:12:45.565Z,3.30
2022-08-26T01:15:24.954Z,3.40
2022-08-26T01:17:53.095Z,3.38
2022-08-26T01:20:57.699Z,3.35
2022-08-26T01:23:35.626Z,3.13
2022-08-26T01:26:20.018Z,3.50
2022-08-26T01:28:51.981Z,3.60
2022-08-26T01:31:25.192Z,3.53
2022-08-26T01:34:35.201Z,3.45
2022-08-26T01:37:11.700Z,3.65
2022-08-26T01:39:46.913Z,3.70
2022-08-26T01:42:16.820Z,3.53
2022-08-26T01:45:10.037Z,3.67
2022-08-26T01:47:38.694Z,3.03
2022-08-26T01:50:15.840Z,3.47
2022-08-26T01:52:57.420Z,3.92
2022-08-26T01:55:32.836Z,3.92
2022-08-26T01:58:08.002Z,3.60
2022-08-26T02:00:36.980Z,3.35
2022-08-26T02:03:21.510Z,3.53
2022-08-26T02:05:57.718Z,2.92
2022-08-26T02:08:37.600Z,3.10
2022-08-26T02:11:05.498Z,3.00
2022-08-26T02:13:40.105Z,3.05
2022-08-26T02:16:08.719Z,2.97
2022-08-26T02:18:40.564Z,2.97
2022-08-26T02:21:09.732Z,2.67
2022-08-26T02:23:37.386Z,2.97
2022-08-26T02:26:17.925Z,2.45
2022-08-26T02:29:07.748Z,2.83
2022-08-26T02:31:35.462Z,2.35
2022-08-26T02:34:12.572Z,3.30
2022-08-26T02:36:40.866Z,2.28
2022-08-26T02:39:08.653Z,2.72
2022-08-26T02:41:36.243Z,2.50
2022-08-26T02:44:13.204Z,2.75
2022-08-26T02:46:41.164Z,3.10
2022-08-26T02:49:08.837Z,2.70
2022-08-26T02:51:35.958Z,3.42
2022-08-26T02:54:03.199Z,2.45
2022-08-26T02:56:34.008Z,2.53
2022-08-26T02:59:02.679Z,2.65
2022-08-26T03:01:34.438Z,2.72
2022-08-26T03:04:06.219Z,2.83
2022-08-26T03:06:33.493Z,3.45
2022-08-26T03:09:02.197Z,2.20
2022-08-26T03:11:32.987Z,2.53
2022-08-26T03:14:03.400Z,2.50
2022-08-26T03:16:38.130Z,2.65
2022-08-26T03:19:09.276Z,2.65
2022-08-26T03:21:38.936Z,2.30
2022-08-26T03:24:06.472Z,2.50
2022-08-26T03:26:33.494Z,2.45
2022-08-26T03:29:19.469Z,2.40
2022-08-26T03:31:47.124Z,2.40
2022-08-26T03:34:15.376Z,2.60
2022-08-26T03:36:42.552Z,2.80
2022-08-26T03:39:12.188Z,2.47
2022-08-26T03:41:40.753Z,2.50
2022-08-26T03:44:11.918Z,2.30
2022-08-26T03:46:40.524Z,2.00
2022-08-26T03:49:07.630Z,2.20
2022-08-26T03:51:38.741Z,2.13
2022-08-26T03:54:08.194Z,2.30
2022-08-26T03:56:36.751Z,2.20
2022-08-26T03:59:04.839Z,2.20
2022-08-26T04:01:35.335Z,2.05
2022-08-26T04:04:03.249Z,2.15
2022-08-26T04:06:44.701Z,2.25
2022-08-26T04:09:20.419Z,1.80
2022-08-26T04:11:50.576Z,2.00
2022-08-26T04:14:23.964Z,2.40
2022-08-26T04:16:52.993Z,3.00
2022-08-26T04:19:24.824Z,2.20
2022-08-26T04:21:55.463Z,2.75
2022-08-26T04:24:26.199Z,2.35
2022-08-26T04:26:56.404Z,2.03
2022-08-26T04:29:26.764Z,2.50
2022-08-26T04:31:55.939Z,1.95
2022-08-26T04:34:28.502Z,1.92
2022-08-26T04:36:57.771Z,2.03
2022-08-26T04:39:27.702Z,2.13
2022-08-26T04:41:55.712Z,2.35
2022-08-26T04:44:30.899Z,2.30
2022-08-26T04:47:00.835Z,1.83
2022-08-26T04:49:28.035Z,2.33
2022-08-26T04:52:03.876Z,1.67
2022-08-26T04:54:31.876Z,1.90
2022-08-26T04:57:00.810Z,1.80
2022-08-26T04:59:27.950Z,1.60
2022-08-26T05:01:57.369Z,2.20
2022-08-26T05:04:24.756Z,2.10
2022-08-26T05:06:55.672Z,2.10
2022-08-26T05:09:26.084Z,1.65
2022-08-26T05:11:53.165Z,1.90
2022-08-26T05:14:23.249Z,1.45
2022-08-26T05:16:51.136Z,1.98
2022-08-26T05:19:19.612Z,1.92
2022-08-26T05:21:48.726Z,1.85
2022-08-26T05:24:17.871Z,2.05
2022-08-26T05:26:47.255Z,1.73
2022-08-26T05:29:17.937Z,1.70
2022-08-26T05:31:45.294Z,1.80
2022-08-26T05:34:12.688Z,1.60
2022-08-26T05:36:40.279Z,1.52
2022-08-26T05:39:07.902Z,1.50
2022-08-26T05:41:41.548Z,1.60
2022-08-26T05:44:14.728Z,1.73
2022-08-26T05:46:44.773Z,1.55
2022-08-26T05:49:14.830Z,1.60
2022-08-26T05:51:47.524Z,1.50
2022-08-26T05:54:21.818Z,1.60
2022-08-26T05:56:52.409Z,1.90
2022-08-26T05:59:23.954Z,1.60
2022-08-26T06:01:52.925Z,1.70
2022-08-26T06:04:20.158Z,1.52
2022-08-26T06:06:47.809Z,1.50
2022-08-26T06:09:18.343Z,1.35
2022-08-26T06:11:45.697Z,1.52
2022-08-26T06:14:15.789Z,1.65
2022-08-26T06:16:45.567Z,1.50
2022-08-26T06:19:15.675Z,1.50
2022-08-26T06:21:47.842Z,1.50
2022-08-26T06:24:39.973Z,1.52
2022-08-26T06:27:13.379Z,1.60
2022-08-26T06:29:40.496Z,1.48
2022-08-26T06:32:08.717Z,1.67
2022-08-26T06:34:36.254Z,1.50
2022-08-26T06:37:03.667Z,1.35
2022-08-26T06:39:31.976Z,1.33
2022-08-26T06:42:00.967Z,1.50
2022-08-26T06:44:30.664Z,1.20
2022-08-26T06:47:01.428Z,1.45
2022-08-26T06:49:28.550Z,1.40
2022-08-26T06:52:02.899Z,1.30
2022-08-26T06:54:31.692Z,1.10
2022-08-26T06:57:02.626Z,1.10
2022-08-26T06:59:31.284Z,1.15
2022-08-26T07:02:00.876Z,1.52
2022-08-26T07:04:29.697Z,1.30
2022-08-26T07:06:57.453Z,1.23
2022-08-26T07:09:31.126Z,1.45
2022-08-26T07:11:59.303Z,1.35
2022-08-26T07:14:28.668Z,1.20
2022-08-26T07:16:55.732Z,1.48
2022-08-26T07:19:29.928Z,1.80
2022-08-26T07:22:04.675Z,1.70
2022-08-26T07:24:36.967Z,1.00
2022-08-26T07:27:09.094Z,1.88
2022-08-26T07:29:39.569Z,1.42
2022-08-26T07:32:08.637Z,1.15
2022-08-26T07:34:40.883Z,1.20
2022-08-26T07:37:10.787Z,1.05
2022-08-26T07:39:38.464Z,1.20
2022-08-26T07:42:09.949Z,1.60
2022-08-26T07:44:38.091Z,1.45
2022-08-26T07:47:10.157Z,1.42
2022-08-26T07:49:38.750Z,1.77
2022-08-26T07:52:09.223Z,1.17
2022-08-26T07:54:37.984Z,1.38
2022-08-26T07:57:08.373Z,1.30
2022-08-26T07:59:36.588Z,1.33
2022-08-26T08:02:03.693Z,1.27
2022-08-26T08:04:30.741Z,1.30
2022-08-26T08:06:59.258Z,1.40
2022-08-26T08:09:26.199Z,1.35
2022-08-26T08:11:54.534Z,1.50
2022-08-26T08:14:22.274Z,1.67
2022-08-26T08:16:51.127Z,1.67
2022-08-26T08:19:22.055Z,1.38
2022-08-26T08:21:49.227Z,1.65
2022-08-26T08:24:16.354Z,1.20
2022-08-26T08:26:43.505Z,1.23
2022-08-26T08:29:10.876Z,1.50
2022-08-26T08:31:56.954Z,1.33
2022-08-26T08:34:29.415Z,1.27
2022-08-26T08:36:57.693Z,1.30
2022-08-26T08:39:26.373Z,1.50
2022-08-26T08:42:46.912Z,1.40
2022-08-26T08:45:37.036Z,1.10
2022-08-26T08:48:34.893Z,1.45
2022-08-26T08:51:16.907Z,1.48
2022-08-26T08:53:50.728Z,1.02
2022-08-26T08:56:37.616Z,1.00
2022-08-26T08:59:20.317Z,1.10
2022-08-26T09:02:11.249Z,1.00
2022-08-26T09:05:15.343Z,1.30
2022-08-26T09:07:53.903Z,1.30
2022-08-26T09:10:44.154Z,1.20
2022-08-26T09:13:25.190Z,1.33
2022-08-26T09:16:00.676Z,1.20
2022-08-26T09:19:19.152Z,1.40
2022-08-26T09:21:54.506Z,1.13
2022-08-26T09:24:28.496Z,1.35
2022-08-26T09:26:59.381Z,0.90
2022-08-26T09:29:32.111Z,1.20
2022-08-26T09:32:24.158Z,1.50
2022-08-26T09:35:07.499Z,0.90
2022-08-26T09:40:27.000Z,1.42
2022-08-26T09:43:22.367Z,1.48
2022-08-26T09:46:18.483Z,1.30
2022-08-26T09:48:45.623Z,1.40
2022-08-26T09:51:24.040Z,1.65
2022-08-26T09:53:58.977Z,1.20
2022-08-26T09:56:34.030Z,1.02
2022-08-26T09:59:02.612Z,1.20
2022-08-26T10:01:41.949Z,1.45
2022-08-26T10:04:15.023Z,1.63
2022-08-26T10:06:56.868Z,1.42
2022-08-26T10:09:26.864Z,1.30
2022-08-26T10:12:08.261Z,1.13
2022-08-26T10:14:48.111Z,1.23
2022-08-26T10:17:37.089Z,1.27
2022-08-26T10:20:24.963Z,1.00
2022-08-26T10:23:16.978Z,1.20
2022-08-26T10:25:44.836Z,1.30
2022-08-26T10:28:46.604Z,1.20
2022-08-26T10:31:38.179Z,1.15
2022-08-26T10:34:09.457Z,1.30
2022-08-26T10:40:00.988Z,1.17
2022-08-26T10:42:59.185Z,1.20
2022-08-26T10:45:42.772Z,1.48
2022-08-26T10:48:18.408Z,1.30
2022-08-26T10:50:47.971Z,1.23
2022-08-26T10:53:51.408Z,1.60
2022-08-26T10:56:51.738Z,1.20
2022-08-26T10:59:47.473Z,1.40
2022-08-26T11:02:37.120Z,1.10
2022-08-26T11:05:22.473Z,1.30
2022-08-26T11:07:54.841Z,1.13
2022-08-26T11:10:22.545Z,1.30
2022-08-26T11:13:06.826Z,1.42
2022-08-26T11:15:37.142Z,1.38
2022-08-26T11:18:12.271Z,1.40
2022-08-26T11:20:45.027Z,1.05
2022-08-26T11:23:12.898Z,1.13
2022-08-26T11:26:05.319Z,1.25
2022-08-26T11:28:53.383Z,1.48
2022-08-26T11:31:26.755Z,1.33
2022-08-26T11:34:08.695Z,1.20
2022-08-26T11:36:46.990Z,1.27
2022-08-26T11:39:36.845Z,1.02
2022-08-26T11:42:28.563Z,1.20
2022-08-26T11:44:58.280Z,1.10
2022-08-26T11:47:30.727Z,1.17
2022-08-26T11:50:11.536Z,1.33
2022-08-26T11:52:38.586Z,1.48
2022-08-26T11:55:12.042Z,1.20
2022-08-26T11:57:51.714Z,1.33
2022-08-26T12:00:33.281Z,0.95
2022-08-26T12:03:08.106Z,1.02
2022-08-26T12:05:55.405Z,1.10
2022-08-26T12:08:31.106Z,1.20
2022-08-26T12:11:08.616Z,0.90
2022-08-26T12:13:39.068Z,1.10
2022-08-26T12:16:07.613Z,1.27
2022-08-26T12:18:39.101Z,1.17
2022-08-26T12:21:19.730Z,1.20
2022-08-26T12:23:51.293Z,1.35
2022-08-26T12:26:26.929Z,1.10
2022-08-26T12:29:13.186Z,1.08
2022-08-26T12:31:48.278Z,1.40
2022-08-26T12:34:18.135Z,1.20
2022-08-26T12:36:56.742Z,1.05
2022-08-26T12:39:39.840Z,1.25
2022-08-26T12:42:12.868Z,1.50
2022-08-26T12:45:06.924Z,1.23
2022-08-26T12:47:42.483Z,1.23
2022-08-26T12:50:27.135Z,1.30
2022-08-26T12:53:11.130Z,1.40
2022-08-26T12:55:58.863Z,1.08
2022-08-26T12:58:33.409Z,0.98
2022-08-26T13:01:04.775Z,1.13
2022-08-26T13:03:34.591Z,0.93
2022-08-26T13:06:24.983Z,0.98
2022-08-26T13:09:01.047Z,1.20
2022-08-26T13:11:41.032Z,1.33
2022-08-26T13:14:23.619Z,1.58
2022-08-26T13:16:52.980Z,1.05
2022-08-26T13:19:24.215Z,1.10
2022-08-26T13:22:00.777Z,0.90
2022-08-26T13:24:41.887Z,1.00
2022-08-26T13:27:13.589Z,1.02
2022-08-26T13:29:41.413Z,1.50
2022-08-26T13:32:09.824Z,1.00
2022-08-26T13:34:38.920Z,1.10
2022-08-26T13:37:06.764Z,1.02
2022-08-26T13:39:34.421Z,1.00
2022-08-26T13:42:01.560Z,1.02
2022-08-26T13:44:28.626Z,1.65
2022-08-26T13:46:55.740Z,1.20
2022-08-26T13:49:25.806Z,1.33
2022-08-26T13:51:52.996Z,1.13
2022-08-26T13:54:20.085Z,1.30
2022-08-26T13:56:48.483Z,1.15
2022-08-26T13:59:15.585Z,1.23
2022-08-26T14:01:42.703Z,1.20
2022-08-26T14:04:09.734Z,1.50
2022-08-26T14:06:37.341Z,1.80
2022-08-26T14:09:04.768Z,1.63
2022-08-26T14:11:34.757Z,1.30
2022-08-26T14:14:18.974Z,1.50
2022-08-26T14:16:58.919Z,1.42
2022-08-26T14:19:29.922Z,1.40
2022-08-26T14:21:57.229Z,1.40
2022-08-26T14:24:24.067Z,1.55
2022-08-26T14:26:51.017Z,1.45
2022-08-26T14:29:20.752Z,1.60
2022-08-26T14:31:48.317Z,1.60
2022-08-26T14:34:15.399Z,1.45
2022-08-26T14:36:42.406Z,1.50
2022-08-26T14:39:13.322Z,1.67
2022-08-26T14:41:55.005Z,1.30
2022-08-26T14:44:29.163Z,1.60
2022-08-26T14:46:57.104Z,1.75
2022-08-26T14:49:25.158Z,1.60
2022-08-26T14:51:52.136Z,1.33
2022-08-26T14:54:21.868Z,2.00
2022-08-26T14:56:52.108Z,1.80
2022-08-26T14:59:24.543Z,1.70
2022-08-26T15:01:52.343Z,1.85
2022-08-26T15:04:22.790Z,1.63
2022-08-26T15:06:54.311Z,1.80
2022-08-26T15:09:25.639Z,1.67
2022-08-26T15:11:53.593Z,1.77
2022-08-26T15:14:22.540Z,1.70
2022-08-26T15:16:53.982Z,2.50
2022-08-26T15:19:22.728Z,1.95
2022-08-26T15:21:50.462Z,1.80
2022-08-26T15:24:22.051Z,1.98
2022-08-26T15:26:50.297Z,1.73
2022-08-26T15:29:22.759Z,1.85
2022-08-26T15:31:50.662Z,2.53
2022-08-26T15:34:18.359Z,1.90
2022-08-26T15:36:47.452Z,1.60
2022-08-26T15:39:17.064Z,1.60
2022-08-26T15:41:45.171Z,1.60
2022-08-26T15:44:14.300Z,1.80
2022-08-26T15:46:42.615Z,1.52
2022-08-26T15:49:16.187Z,1.45
2022-08-26T15:51:47.792Z,1.77
2022-08-26T15:54:17.119Z,1.50
2022-08-26T15:56:45.516Z,1.60
2022-08-26T15:59:14.884Z,1.65
2022-08-26T16:01:43.602Z,1.60
2022-08-26T16:04:11.448Z,1.45
2022-08-26T16:06:42.628Z,1.70
2022-08-26T16:09:10.527Z,1.40
2022-08-26T16:11:37.814Z,2.00
2022-08-26T16:14:06.099Z,1.83
2022-08-26T16:16:33.269Z,1.63
2022-08-26T16:19:07.263Z,1.50
2022-08-26T16:21:35.188Z,2.03
2022-08-26T16:24:08.967Z,1.38
2022-08-26T16:26:39.288Z,1.42
2022-08-26T16:29:11.133Z,1.70
2022-08-26T16:31:39.087Z,1.77
2022-08-26T16:34:07.927Z,1.40
2022-08-26T16:36:38.129Z,1.52
2022-08-26T16:39:08.704Z,1.65
2022-08-26T16:41:36.506Z,1.83
2022-08-26T16:44:04.827Z,4.25
2022-08-26T16:46:33.692Z,2.53
2022-08-26T16:49:04.603Z,1.92
2022-08-26T16:51:32.513Z,1.58
2022-08-26T16:54:06.968Z,1.42
2022-08-26T16:56:35.078Z,1.80
2022-08-26T16:59:09.491Z,1.83
2022-08-26T17:01:36.598Z,1.65
2022-08-26T17:04:06.643Z,1.60
2022-08-26T17:06:34.090Z,1.52
2022-08-26T17:09:03.927Z,1.60
2022-08-26T17:11:31.071Z,1.30
2022-08-26T17:13:59.394Z,1.60
2022-08-26T17:16:27.392Z,1.42
2022-08-26T17:18:56.620Z,1.50
2022-08-26T17:21:24.691Z,1.65
2022-08-26T17:23:52.194Z,1.48
2022-08-26T17:26:19.756Z,1.50
2022-08-26T17:28:46.758Z,1.25
2022-08-26T17:31:13.885Z,1.55
2022-08-26T17:33:41.160Z,1.20
2022-08-26T17:36:09.793Z,1.42
2022-08-26T17:38:37.945Z,1.40
2022-08-26T17:41:14.247Z,1.35
2022-08-26T17:43:41.319Z,1.52
2022-08-26T17:46:11.794Z,1.30
2022-08-26T17:48:41.265Z,1.20
2022-08-26T17:51:19.145Z,1.40
2022-08-26T17:53:47.861Z,1.45
2022-08-26T17:56:18.630Z,1.23
2022-08-26T17:58:48.227Z,1.27
2022-08-26T18:01:22.621Z,1.15
2022-08-26T18:03:50.357Z,1.40
2022-08-26T18:06:17.476Z,1.20
2022-08-26T18:08:45.056Z,1.38
2022-08-26T18:11:18.749Z,1.40
2022-08-26T18:13:47.634Z,1.40
2022-08-26T18:16:17.845Z,1.48
2022-08-26T18:18:46.473Z,1.10
2022-08-26T18:21:18.041Z,1.20
2022-08-26T18:23:46.850Z,1.38
2022-08-26T18:26:40.993Z,1.50
2022-08-26T18:29:08.347Z,1.17
2022-08-26T18:31:37.892Z,1.17
2022-08-26T18:34:05.855Z,1.90
2022-08-26T18:36:36.879Z,1.50
2022-08-26T18:39:06.816Z,1.48
2022-08-26T18:41:44.097Z,1.30
2022-08-26T18:44:13.928Z,1.50
2022-08-26T18:46:41.977Z,1.52
2022-08-26T18:49:12.483Z,1.40
2022-08-26T18:51:39.531Z,1.73
2022-08-26T18:54:08.276Z,1.92
2022-08-26T18:56:39.013Z,1.45
2022-08-26T18:59:08.344Z,1.55
2022-08-26T19:01:37.731Z,1.20
2022-08-26T19:04:08.067Z,1.40
2022-08-26T19:06:36.351Z,1.45
2022-08-26T19:09:07.731Z,1.60
2022-08-26T19:11:37.329Z,1.58
2022-08-26T19:14:13.015Z,1.35
2022-08-26T19:16:46.256Z,1.50
2022-08-26T19:19:15.248Z,1.55
2022-08-26T19:21:42.468Z,1.35
2022-08-26T19:24:15.544Z,1.48
2022-08-26T19:26:45.703Z,1.48
2022-08-26T19:29:13.832Z,1.25
2022-08-26T19:31:42.200Z,1.20
2022-08-26T19:34:12.239Z,1.30
2022-08-26T19:36:40.132Z,1.30
2022-08-26T19:39:12.448Z,1.23
2022-08-26T19:41:40.650Z,1.50
2022-08-26T19:44:38.025Z,1.50
2022-08-26T19:47:08.740Z,1.50
2022-08-26T19:49:36.018Z,1.40
2022-08-26T19:52:03.953Z,1.73
2022-08-26T19:54:30.879Z,1.95
2022-08-26T19:56:57.957Z,1.17
2022-08-26T19:59:28.984Z,1.10
2022-08-26T20:02:01.462Z,1.35
2022-08-26T20:04:31.451Z,1.80
2022-08-26T20:07:03.341Z,1.40
2022-08-26T20:09:34.207Z,1.38
2022-08-26T20:12:03.042Z,1.40
2022-08-26T20:14:30.312Z,1.35
2022-08-26T20:16:57.961Z,1.20
2022-08-26T20:19:44.070Z,1.48
2022-08-26T20:22:13.206Z,1.50
2022-08-26T20:24:40.825Z,1.60
2022-08-26T20:27:08.252Z,1.20
2022-08-26T20:29:37.288Z,1.27
2022-08-26T20:32:07.858Z,1.45
2022-08-26T20:34:36.632Z,1.13
2022-08-26T20:37:04.415Z,1.73
2022-08-26T20:39:31.442Z,1.40
2022-08-26T20:41:59.619Z,1.55
2022-08-26T20:44:28.618Z,1.50
2022-08-26T20:46:56.607Z,1.40
2022-08-26T20:49:23.590Z,1.20
2022-08-26T20:51:53.548Z,1.27
2022-08-26T20:54:27.515Z,1.35
2022-08-26T20:57:00.484Z,1.15
2022-08-26T20:59:27.632Z,1.58
2022-08-26T21:01:55.102Z,1.50
2022-08-26T21:04:25.713Z,1.55
2022-08-26T21:06:54.350Z,1.70
2022-08-26T21:09:25.502Z,1.30
2022-08-26T21:11:55.174Z,1.92
2022-08-26T21:14:23.242Z,1.38
2022-08-26T21:16:53.841Z,1.45
2022-08-26T21:19:21.774Z,1.50
2022-08-26T21:21:49.949Z,1.52
2022-08-26T21:24:17.579Z,1.50
2022-08-26T21:26:45.580Z,1.65
2022-08-26T21:29:13.681Z,1.52
2022-08-26T21:31:46.081Z,1.50
2022-08-26T21:34:17.049Z,1.60
2022-08-26T21:36:47.945Z,1.80
2022-08-26T21:39:16.537Z,1.58
2022-08-26T21:41:44.626Z,1.75
2022-08-26T21:44:14.176Z,1.90
2022-08-26T21:46:42.577Z,1.85
2022-08-26T21:49:13.688Z,1.73
2022-08-26T21:51:45.924Z,1.88
2022-08-26T21:54:14.147Z,1.60
2022-08-26T21:56:46.062Z,2.08
2022-08-26T21:59:16.884Z,1.75
2022-08-26T22:01:43.923Z,1.70
2022-08-26T22:04:10.883Z,1.90
2022-08-26T22:06:47.280Z,1.77
2022-08-26T22:09:18.991Z,1.80
2022-08-26T22:11:47.416Z,1.60
2022-08-26T22:14:15.957Z,1.90
2022-08-26T22:16:45.738Z,1.70
2022-08-26T22:19:20.085Z,1.65
2022-08-26T22:21:51.964Z,1.80
2022-08-26T22:24:22.251Z,1.63
2022-08-26T22:26:50.449Z,1.80
2022-08-26T22:29:18.781Z,1.73
2022-08-26T22:31:47.209Z,1.73
2022-08-26T22:34:17.266Z,2.00
2022-08-26T22:36:48.303Z,1.88
2022-08-26T22:39:21.084Z,1.80
2022-08-26T22:41:49.569Z,1.67
2022-08-26T22:44:18.996Z,1.50
2022-08-26T22:46:48.707Z,1.58
2022-08-26T22:49:16.506Z,1.77
2022-08-26T22:51:45.763Z,1.67
2022-08-26T22:54:14.219Z,1.65
2022-08-26T22:56:41.390Z,1.70
2022-08-26T22:59:10.572Z,1.90
2022-08-26T23:01:41.233Z,1.75
2022-08-26T23:04:09.331Z,1.45
2022-08-26T23:06:39.998Z,1.63
2022-08-26T23:09:09.020Z,1.45
2022-08-26T23:11:36.415Z,1.63
2022-08-26T23:14:06.575Z,1.67
2022-08-26T23:16:41.639Z,1.73
2022-08-26T23:19:12.293Z,2.00
2022-08-26T23:21:40.035Z,2.50
2022-08-26T23:24:09.063Z,1.80
2022-08-26T23:26:38.527Z,1.70
2022-08-26T23:29:08.328Z,1.65
2022-08-26T23:31:37.685Z,1.30
2022-08-26T23:34:24.111Z,1.83
2022-08-26T23:36:52.597Z,1.98
2022-08-26T23:39:21.026Z,1.85
2022-08-26T23:41:47.985Z,1.75
2022-08-26T23:44:40.430Z,1.80
2022-08-26T23:47:33.473Z,2.00
2022-08-26T23:50:00.767Z,1.67
2022-08-26T23:52:46.820Z,1.60
2022-08-26T23:55:14.376Z,1.73
2022-08-26T23:57:41.446Z,1.83
